Tropical Cyclones
[Index]
Main Index Home Page Stock Weather Photos Extreme Storms Discussion Storm News and Storm Chasing Reports Tropical Cyclones / Hurricanes / Typhoons Weather Data and Links Wild Fires / Bushfires Weather Observation Techniques Weather Picture Catalogue Tornado Pictures and Reports Stock Video Footage and DVDs for sale
Season 1995-1996 Tropical Cyclone KIRSTY Track Map
Season 1995-1996 Summaries: [BoM-AU] [JTWC-AU] [JTWC-SIO] [JTWC-SPAC] [JTWC-SH]
<<- Previous TC | JTWC 1995-1996 Season | Next TC ->>

click for intensity scale information  Lat/long Grid: Show Hide

 Date Labels: Show Hide

Joint Typhoon Warning Centre Cyclone Data

Name: KIRSTY

06 Mar 1996 06:00 UTC to 14 Mar 1996 12:00 UTC

    date/time    lat    long     hPa   cat  kts
1996-03-06 06   17.2   128.6                  15          
1996-03-06 12   16.9   128.0                  15          
1996-03-06 18   16.8   127.2                  20          
1996-03-07 00   16.8   126.4                  20          
1996-03-07 06   16.7   125.5                  20          
1996-03-07 12   16.6   124.7                  20          
1996-03-07 18   16.5   123.8                  25          
1996-03-08 00   16.4   122.7                  25          
1996-03-08 06   16.4   121.6                  25          
1996-03-08 12   16.3   120.6                  35          
1996-03-08 18   16.2   119.9            1     45          
1996-03-09 00   16.0   119.7            1     50          
1996-03-09 06   15.9   119.6            1     50          
1996-03-09 12   15.8   119.8            2     55          
1996-03-09 18   15.8   120.3            2     60          
1996-03-10 00   16.1   120.9            2     65          
1996-03-10 06   16.5   121.3            2     70          
1996-03-10 12   17.0   121.3            3     75          
1996-03-10 18   17.4   121.0            3     80          
1996-03-11 00   17.9   120.7            3     85          
1996-03-11 06   18.4   120.4            3     90          
1996-03-11 12   19.1   120.1            3     95          
1996-03-11 18   19.9   119.7            4    100          
1996-03-12 00   20.7   119.5            4    100          
1996-03-12 06   21.5   119.5            3     90          
1996-03-12 12   22.3   119.9            2     70          
1996-03-12 18   23.1   120.4            1     45          
1996-03-13 00   23.9   120.9                  20          
1996-03-13 06   24.9   121.1                  20          
1996-03-13 12   26.2   121.3                  20          
1996-03-13 18   27.7   121.8                  20          
1996-03-14 00   29.4   122.6                  20          
1996-03-14 06   31.1   123.7                  20          
1996-03-14 12   32.9   124.9                  20          
Winds are 1-min average.

Tropical cyclone tracks developed by Michael Bath using data from the Joint Typhoon Warning Centre Best Tracks and Google Maps.


[Australian Severe Weather index] [Copyright Notice] [Email Contacts] [Search This Site] [Privacy Policy]
Document: tropical_cyclone_kirsty.htm Updated: 18 September 2016